Time;durP1;ratioP1;P1;durP2;ratioP2;P2;SDS_P1;SDS_P2;PMS_P1;PMS_P2;Temp;Humidity;BMP_temperature;BMP_pressure;BME280_temperature;BME280_humidity;BME280_pressure;Samples;Min_cycle;Max_cycle;Signal;HPM_P1;HPM_P2
2022/06/10 00:01:01;;;;;;;0.10;0.10;;;16.30;88.40;;;;;;5039761;28;20060;-79
2022/06/10 00:03:27;;;;;;;0.45;0.45;;;16.30;88.40;;;;;;5043147;28;20036;-79
2022/06/10 00:06:03;;;;;;;0.27;0.27;;;16.30;88.70;;;;;;5043370;28;20508;-79
2022/06/10 00:08:33;;;;;;;0.17;0.17;;;16.30;88.70;;;;;;5043096;28;20412;-79
2022/06/10 00:11:00;;;;;;;0.00;0.00;;;16.20;88.60;;;;;;5043976;28;20514;-79
2022/06/10 00:13:29;;;;;;;0.10;0.10;;;16.00;89.10;;;;;;5041886;28;20112;-79
2022/06/10 00:15:56;;;;;;;0.10;0.10;;;15.90;89.80;;;;;;5040250;28;20043;-79
2022/06/10 00:18:23;;;;;;;0.98;0.88;;;15.70;90.30;;;;;;5041510;28;20029;-78
2022/06/10 00:20:49;;;;;;;0.52;0.10;;;15.60;90.40;;;;;;5044576;28;20512;-79
2022/06/10 00:23:15;;;;;;;0.00;0.00;;;15.60;90.60;;;;;;5042596;28;20044;-79
2022/06/10 00:25:42;;;;;;;0.10;0.10;;;15.50;90.80;;;;;;5042510;28;20300;-78
2022/06/10 00:28:09;;;;;;;;;;;15.40;91.00;;;;;;5035839;28;20044;-79
2022/06/10 00:30:35;;;;;;;0.00;0.00;;;15.40;91.20;;;;;;5045249;28;19916;-79
2022/06/10 00:33:01;;;;;;;0.15;0.15;;;15.30;91.40;;;;;;5042582;28;20032;-80
2022/06/10 00:35:28;;;;;;;0.23;0.23;;;15.20;91.30;;;;;;5022699;28;20037;-79
2022/06/10 00:37:54;;;;;;;0.00;0.00;;;15.10;91.50;;;;;;5039995;28;20707;-80
2022/06/10 00:40:27;;;;;;;0.10;0.10;;;15.00;91.60;;;;;;5039205;28;20044;-80
2022/06/10 00:42:56;;;;;;;0.10;0.10;;;14.90;91.90;;;;;;5042561;28;20111;-80
2022/06/10 00:45:59;;;;;;;0.40;0.40;;;14.90;91.90;;;;;;5047071;28;20036;-80
2022/06/10 00:48:40;;;;;;;0.20;0.20;;;14.90;92.00;;;;;;5012700;28;20076;-80
2022/06/10 00:51:18;;;;;;;0.00;0.00;;;14.90;92.10;;;;;;5040712;28;20056;-80
2022/06/10 00:53:45;;;;;;;0.13;0.13;;;14.90;92.10;;;;;;5041773;28;20140;-80
2022/06/10 00:56:16;;;;;;;0.10;0.10;;;14.90;92.20;;;;;;5041325;28;20033;-80
2022/06/10 00:58:58;;;;;;;0.95;0.90;;;14.90;92.10;;;;;;5040703;28;20021;-79
2022/06/10 01:01:25;;;;;;;0.00;0.00;;;14.80;92.20;;;;;;5039618;28;20033;-79
2022/06/10 01:03:52;;;;;;;0.73;0.50;;;14.70;92.30;;;;;;5040059;28;20032;-79
2022/06/10 01:06:18;;;;;;;;;;;14.60;92.70;;;;;;5041945;28;20033;-79
2022/06/10 01:08:45;;;;;;;0.10;0.10;;;14.60;92.80;;;;;;5042864;28;20115;-80
2022/06/10 01:11:35;;;;;;;0.15;0.15;;;14.70;92.90;;;;;;5040788;28;20423;-79
2022/06/10 01:14:25;;;;;;;0.10;0.10;;;14.60;92.70;;;;;;5017293;28;20479;-78
2022/06/10 01:17:04;;;;;;;0.50;0.50;;;14.60;92.90;;;;;;5040944;28;20405;-79
2022/06/10 01:20:02;;;;;;;0.10;0.10;;;14.50;92.90;;;;;;5006735;28;20504;-80
2022/06/10 01:23:07;;;;;;;0.10;0.10;;;14.40;92.80;;;;;;5019716;28;20222;-80
2022/06/10 01:25:43;;;;;;;0.10;0.10;;;14.20;93.50;;;;;;5022840;28;20032;-80
2022/06/10 01:28:20;;;;;;;1.55;0.90;;;14.20;93.70;;;;;;5039746;28;20064;-79
2022/06/10 01:31:08;;;;;;;0.10;0.10;;;14.00;93.90;;;;;;5040978;28;20120;-79
2022/06/10 01:33:44;;;;;;;0.73;0.40;;;14.00;93.90;;;;;;5035454;28;20116;-80
2022/06/10 01:36:16;;;;;;;0.73;0.73;;;13.90;94.10;;;;;;5039209;28;20049;-80
2022/06/10 01:38:48;;;;;;;0.50;0.47;;;13.90;94.20;;;;;;5042442;28;20116;-78
2022/06/10 01:41:32;;;;;;;0.10;0.10;;;13.80;94.30;;;;;;5027063;28;20131;-80
2022/06/10 01:44:17;;;;;;;0.10;0.10;;;13.90;94.20;;;;;;5040364;28;20125;-79
2022/06/10 01:46:54;;;;;;;0.22;0.22;;;13.80;94.10;;;;;;5035176;28;20028;-80
2022/06/10 01:49:24;;;;;;;0.20;0.20;;;13.80;94.20;;;;;;5024707;28;20095;-80
2022/06/10 01:52:02;;;;;;;1.00;0.90;;;13.80;94.70;;;;;;5040958;28;20043;-78
2022/06/10 01:54:42;;;;;;;0.20;0.20;;;13.80;94.80;;;;;;5033770;28;20041;-78
2022/06/10 01:57:14;;;;;;;0.20;0.20;;;13.70;94.80;;;;;;5040139;28;20029;-77
2022/06/10 01:59:48;;;;;;;0.30;0.30;;;13.60;94.80;;;;;;5040251;28;20041;-78
2022/06/10 02:02:19;;;;;;;0.10;0.10;;;13.60;94.90;;;;;;5039314;28;20579;-78
2022/06/10 02:05:07;;;;;;;0.68;0.20;;;13.50;94.70;;;;;;5040940;28;20037;-78
2022/06/10 02:07:51;;;;;;;0.10;0.10;;;13.60;94.70;;;;;;5039223;28;20390;-78
2022/06/10 02:10:22;;;;;;;7.53;0.75;;;13.60;94.70;;;;;;5036759;28;20496;-78
2022/06/10 02:12:56;;;;;;;0.10;0.10;;;13.50;94.70;;;;;;5039468;28;20025;-78
2022/06/10 02:15:49;;;;;;;0.13;0.13;;;13.50;94.60;;;;;;5038571;28;20045;-78
2022/06/10 02:18:37;;;;;;;0.10;0.10;;;13.60;94.40;;;;;;5039685;28;20071;-77
2022/06/10 02:21:11;;;;;;;0.38;0.38;;;13.60;94.30;;;;;;5037331;28;20041;-78
2022/06/10 02:23:43;;;;;;;0.17;0.17;;;13.60;94.10;;;;;;5039949;28;20029;-78
2022/06/10 02:26:10;;;;;;;1.35;0.45;;;13.50;94.10;;;;;;5038139;28;20021;-78
2022/06/10 02:28:47;;;;;;;0.28;0.28;;;13.50;94.20;;;;;;5038174;28;20521;-77
2022/06/10 02:31:18;;;;;;;0.10;0.10;;;13.50;94.10;;;;;;5035869;28;20039;-78
2022/06/10 02:33:44;;;;;;;0.05;0.05;;;13.50;94.10;;;;;;5037448;28;20032;-78
2022/06/10 02:36:12;;;;;;;0.10;0.10;;;13.40;94.00;;;;;;5040342;28;20814;-79
2022/06/10 02:39:06;;;;;;;9.30;0.70;;;13.40;94.10;;;;;;5040540;28;20488;-78
2022/06/10 02:42:08;;;;;;;0.98;0.95;;;13.40;94.20;;;;;;5040635;28;20041;-79
2022/06/10 02:44:49;;;;;;;0.30;0.30;;;13.30;94.40;;;;;;5039430;28;20472;-79
2022/06/10 02:47:15;;;;;;;0.20;0.20;;;13.30;94.60;;;;;;5033717;28;20049;-80
2022/06/10 02:49:41;;;;;;;0.25;0.25;;;13.30;94.50;;;;;;5038580;28;20094;-81
2022/06/10 02:52:11;;;;;;;0.15;0.15;;;13.20;94.50;;;;;;5036066;28;20020;-79
2022/06/10 02:54:39;;;;;;;0.20;0.20;;;13.30;94.70;;;;;;5039078;28;20040;-81
2022/06/10 02:57:10;;;;;;;0.10;0.10;;;13.20;94.50;;;;;;5038576;28;20025;-79
2022/06/10 03:02:46;;;;;;;0.65;0.50;;;13.20;94.60;;;;;;5040815;28;20617;-84
2022/06/10 03:05:30;;;;;;;0.57;0.57;;;13.10;94.70;;;;;;4997113;28;20501;-84
2022/06/10 03:08:23;;;;;;;0.10;0.10;;;13.00;94.70;;;;;;4994950;28;20030;-83
2022/06/10 03:11:03;;;;;;;0.10;0.10;;;13.00;94.70;;;;;;4987825;28;20045;-82
2022/06/10 03:14:09;;;;;;;0.10;0.10;;;12.90;94.80;;;;;;4997719;28;20033;-82
2022/06/10 03:16:49;;;;;;;0.10;0.10;;;13.00;94.70;;;;;;4992450;28;20129;-83
2022/06/10 03:19:36;;;;;;;0.32;0.32;;;13.00;94.60;;;;;;4996328;28;20097;-82
2022/06/10 03:22:26;;;;;;;0.10;0.10;;;12.80;95.90;;;;;;4991233;28;20046;-82
2022/06/10 03:24:51;;;;;;;0.10;0.10;;;12.80;96.10;;;;;;4996465;28;20048;-82
2022/06/10 03:27:26;;;;;;;0.00;0.00;;;12.70;96.30;;;;;;4975071;28;20533;-82
2022/06/10 03:30:14;;;;;;;0.30;0.30;;;12.60;96.30;;;;;;4995091;28;20046;-82
2022/06/10 03:32:43;;;;;;;1.55;0.75;;;12.50;96.10;;;;;;4993150;28;20048;-82
2022/06/10 03:35:21;;;;;;;0.10;0.10;;;12.50;95.80;;;;;;4977569;28;20552;-82
2022/06/10 03:37:48;;;;;;;0.22;0.22;;;12.40;95.60;;;;;;4990471;28;20035;-81
2022/06/10 03:40:26;;;;;;;0.13;0.13;;;12.40;95.50;;;;;;4988819;28;20568;-82
2022/06/10 03:42:55;;;;;;;0.22;0.22;;;12.40;95.40;;;;;;5030733;28;20044;-82
2022/06/10 03:45:47;;;;;;;0.20;0.20;;;12.40;95.30;;;;;;5032732;28;20451;-82
2022/06/10 03:48:16;;;;;;;0.10;0.10;;;12.30;95.40;;;;;;5037697;28;20046;-82
2022/06/10 03:50:43;;;;;;;0.13;0.13;;;12.30;95.30;;;;;;5022035;28;20486;-82
2022/06/10 03:53:15;;;;;;;0.30;0.30;;;12.20;95.20;;;;;;5037399;28;20036;-83
2022/06/10 03:55:40;;;;;;;1.30;1.05;;;12.20;95.20;;;;;;5038227;28;20037;-82
2022/06/10 03:58:06;;;;;;;0.10;0.10;;;12.20;95.10;;;;;;5037539;28;20025;-82
2022/06/10 04:00:32;;;;;;;0.20;0.20;;;12.20;95.00;;;;;;5039441;28;20688;-82
2022/06/10 04:02:58;;;;;;;0.15;0.15;;;12.20;95.10;;;;;;5040046;28;20025;-83
2022/06/10 04:05:24;;;;;;;0.23;0.23;;;12.30;95.00;;;;;;5039275;28;20041;-79
2022/06/10 04:07:50;;;;;;;0.15;0.15;;;12.20;95.00;;;;;;5037792;28;20029;-80
2022/06/10 04:10:19;;;;;;;0.10;0.10;;;12.20;94.90;;;;;;5048587;28;20639;-82
2022/06/10 04:12:45;;;;;;;1.05;0.35;;;12.20;94.90;;;;;;5040753;28;20091;-82
2022/06/10 04:15:14;;;;;;;0.10;0.10;;;12.20;94.80;;;;;;5043469;28;20052;-81
2022/06/10 04:17:45;;;;;;;0.10;0.10;;;12.10;94.90;;;;;;5044459;28;20017;-80
2022/06/10 04:20:17;;;;;;;0.47;0.47;;;12.10;94.90;;;;;;5041063;28;20029;-80
2022/06/10 04:22:43;;;;;;;16.85;0.75;;;12.10;94.70;;;;;;5025274;28;20074;-80
2022/06/10 04:25:09;;;;;;;0.10;0.10;;;12.20;94.60;;;;;;5040697;28;20040;-80
2022/06/10 04:27:35;;;;;;;0.20;0.20;;;12.30;94.20;;;;;;5041170;28;20721;-80
2022/06/10 04:30:02;;;;;;;0.10;0.10;;;12.90;93.00;;;;;;5042946;28;20045;-80
2022/06/10 04:32:28;;;;;;;0.30;0.30;;;13.40;91.90;;;;;;5042170;28;20075;-79
2022/06/10 04:34:53;;;;;;;0.20;0.20;;;13.80;91.00;;;;;;5023436;28;20056;-80
2022/06/10 04:37:19;;;;;;;0.10;0.10;;;14.30;90.00;;;;;;5024584;28;20025;-80
2022/06/10 04:39:45;;;;;;;0.77;0.53;;;14.70;88.10;;;;;;5025452;28;20864;-81
2022/06/10 04:42:11;;;;;;;0.20;0.20;;;14.90;87.50;;;;;;5041957;28;20179;-81
2022/06/10 04:44:36;;;;;;;0.00;0.00;;;15.10;86.40;;;;;;5024959;28;20170;-80
2022/06/10 04:47:03;;;;;;;0.10;0.10;;;15.40;85.00;;;;;;5024794;28;20043;-81
2022/06/10 04:49:30;;;;;;;0.20;0.20;;;15.70;83.70;;;;;;5024281;28;20535;-83
2022/06/10 04:51:56;;;;;;;;;;;15.80;82.60;;;;;;5037142;28;20072;-82
2022/06/10 04:54:21;;;;;;;0.20;0.20;;;16.10;81.80;;;;;;5041243;28;19920;-83
2022/06/10 04:56:47;;;;;;;0.10;0.10;;;16.50;80.70;;;;;;5040948;28;20512;-83
2022/06/10 04:59:13;;;;;;;0.20;0.20;;;16.70;79.70;;;;;;5026105;28;20025;-84
2022/06/10 05:01:38;;;;;;;0.33;0.33;;;17.10;78.20;;;;;;5039667;28;20100;-83
2022/06/10 05:04:04;;;;;;;0.20;0.20;;;17.60;76.50;;;;;;5041128;28;20044;-83
2022/06/10 05:06:30;;;;;;;0.10;0.10;;;17.70;76.20;;;;;;5039864;28;20026;-85
2022/06/10 05:08:56;;;;;;;0.10;0.10;;;18.10;74.60;;;;;;5023829;28;20060;-90
2022/06/10 05:11:23;;;;;;;0.00;0.00;;;18.20;73.80;;;;;;5042911;28;20048;-89
2022/06/10 05:13:48;;;;;;;0.00;0.00;;;18.40;73.50;;;;;;5039589;28;20049;-88
2022/06/10 05:16:15;;;;;;;0.07;0.07;;;18.80;71.70;;;;;;5035327;28;20029;-86
2022/06/10 05:18:41;;;;;;;0.65;0.35;;;19.00;71.70;;;;;;5036492;28;20040;-86
2022/06/10 05:21:07;;;;;;;0.00;0.00;;;19.00;71.40;;;;;;5006693;28;20032;-88
2022/06/10 05:23:32;;;;;;;0.13;0.13;;;18.90;71.30;;;;;;5025836;28;20707;-89
2022/06/10 05:25:58;;;;;;;0.00;0.00;;;19.10;71.60;;;;;;5035307;28;20068;-87
2022/06/10 05:28:24;;;;;;;0.07;0.07;;;19.40;70.10;;;;;;5041125;28;20034;-89
2022/06/10 05:30:51;;;;;;;0.00;0.00;;;19.60;69.70;;;;;;5040279;28;20029;-93
2022/06/10 05:33:17;;;;;;;0.00;0.00;;;19.60;69.10;;;;;;5040855;28;20060;-85
2022/06/10 05:35:44;;;;;;;0.00;0.00;;;20.00;68.40;;;;;;5040290;28;20117;-85
2022/06/10 05:38:10;;;;;;;0.75;0.65;;;20.10;68.50;;;;;;5005610;28;20291;-84
2022/06/10 05:40:36;;;;;;;10.00;0.50;;;19.80;69.80;;;;;;5039388;28;20032;-84
2022/06/10 05:43:04;;;;;;;0.20;0.10;;;20.00;68.00;;;;;;5022388;28;20037;-83
2022/06/10 05:45:31;;;;;;;0.03;0.03;;;20.30;67.20;;;;;;5040474;28;20021;-83
2022/06/10 05:47:58;;;;;;;;;;;21.00;65.00;;;;;;5042612;28;20057;-82
2022/06/10 05:50:27;;;;;;;0.08;0.08;;;21.30;64.20;;;;;;5040543;28;19912;-83
2022/06/10 05:52:53;;;;;;;0.00;0.00;;;21.30;64.40;;;;;;5039224;28;20400;-84
2022/06/10 05:55:20;;;;;;;;;;;21.50;63.70;;;;;;5040972;28;20048;-83
2022/06/10 05:57:46;;;;;;;;;;;21.60;62.90;;;;;;5040913;28;19912;-82
2022/06/10 06:00:21;;;;;;;0.00;0.00;;;21.80;63.00;;;;;;5041873;28;19916;-82
2022/06/10 06:02:46;;;;;;;0.10;0.00;;;22.60;60.90;;;;;;5042781;28;20044;-81
2022/06/10 06:05:12;;;;;;;0.77;0.73;;;22.60;60.70;;;;;;5041866;28;20035;-81
2022/06/10 06:07:40;;;;;;;0.10;0.10;;;22.50;60.60;;;;;;5039839;28;20686;-81
2022/06/10 06:10:07;;;;;;;1.80;0.30;;;22.90;59.40;;;;;;5041721;28;20041;-79
2022/06/10 06:12:34;;;;;;;0.00;0.00;;;23.10;58.00;;;;;;5040598;28;20053;-79
2022/06/10 06:14:59;;;;;;;0.10;0.10;;;23.70;56.50;;;;;;5042072;28;20040;-80
2022/06/10 06:17:25;;;;;;;0.00;0.00;;;23.50;57.00;;;;;;5041088;28;20067;-79
2022/06/10 06:19:51;;;;;;;0.45;0.43;;;24.00;57.10;;;;;;5041282;28;20045;-78
2022/06/10 06:22:17;;;;;;;0.45;0.30;;;25.00;54.20;;;;;;5039457;28;20123;-80
2022/06/10 06:24:42;;;;;;;0.00;0.00;;;24.60;54.40;;;;;;5023762;28;20103;-79
2022/06/10 06:27:13;;;;;;;0.00;0.00;;;25.90;52.50;;;;;;5041361;28;20020;-79
2022/06/10 06:29:40;;;;;;;0.00;0.00;;;26.10;51.80;;;;;;5024209;28;20041;-80
2022/06/10 06:32:06;;;;;;;0.85;0.60;;;26.20;53.20;;;;;;5023670;28;20032;-80
2022/06/10 06:34:31;;;;;;;;;;;25.70;52.30;;;;;;5038737;28;20152;-80
2022/06/10 06:36:57;;;;;;;0.00;0.00;;;26.40;51.30;;;;;;5024162;28;19912;-78
2022/06/10 06:39:25;;;;;;;0.38;0.30;;;25.80;53.10;;;;;;5039546;28;20029;-81
2022/06/10 06:41:52;;;;;;;0.10;0.10;;;25.80;52.80;;;;;;5024445;28;20057;-80
2022/06/10 06:44:18;;;;;;;0.00;0.00;;;26.50;51.10;;;;;;5037987;28;20128;-82
2022/06/10 06:46:44;;;;;;;;;;;27.40;50.60;;;;;;5037242;28;20046;-83
2022/06/10 06:49:15;;;;;;;0.45;0.40;;;27.30;48.80;;;;;;5039209;28;19920;-85
2022/06/10 06:51:41;;;;;;;0.00;0.00;;;26.90;50.50;;;;;;5039732;28;20025;-84
2022/06/10 06:54:08;;;;;;;0.08;0.00;;;27.10;51.40;;;;;;5040741;28;20527;-83
2022/06/10 06:56:33;;;;;;;3.63;0.47;;;28.30;48.00;;;;;;5018527;28;20789;-84
2022/06/10 06:58:59;;;;;;;0.43;0.43;;;27.10;50.80;;;;;;5038164;28;20021;-83
2022/06/10 07:01:25;;;;;;;0.10;0.10;;;27.20;49.40;;;;;;5039245;28;20029;-83
2022/06/10 07:03:51;;;;;;;0.43;0.43;;;27.40;50.20;;;;;;5039322;28;20090;-83
2022/06/10 07:06:16;;;;;;;0.68;0.22;;;27.10;49.50;;;;;;5041067;28;20472;-83
2022/06/10 07:08:42;;;;;;;0.00;0.00;;;27.30;49.30;;;;;;5042605;28;20029;-84
2022/06/10 07:11:08;;;;;;;0.00;0.00;;;27.50;49.70;;;;;;5039046;28;20029;-84
2022/06/10 07:13:37;;;;;;;0.20;0.10;;;27.60;48.90;;;;;;5039005;28;20107;-84
2022/06/10 07:16:04;;;;;;;0.90;0.20;;;27.60;50.00;;;;;;5028813;28;20047;-84
2022/06/10 07:18:30;;;;;;;0.00;0.00;;;27.70;48.10;;;;;;5038659;28;20500;-84
2022/06/10 07:20:56;;;;;;;0.13;0.10;;;27.90;48.20;;;;;;5041633;28;20047;-84
2022/06/10 07:23:22;;;;;;;;;;;27.90;48.30;;;;;;5040295;28;20028;-84
2022/06/10 07:25:48;;;;;;;0.00;0.00;;;28.80;46.80;;;;;;5022305;28;19920;-84
2022/06/10 07:28:14;;;;;;;;;;;29.70;45.90;;;;;;5039032;28;20511;-83
2022/06/10 07:30:41;;;;;;;0.00;0.00;;;29.50;44.90;;;;;;5028213;28;19913;-84
2022/06/10 07:33:07;;;;;;;0.00;0.00;;;30.00;44.80;;;;;;5041254;28;20419;-84
2022/06/10 07:35:33;;;;;;;;;;;30.30;43.90;;;;;;5040693;28;20512;-84
2022/06/10 07:37:58;;;;;;;0.43;0.30;;;29.60;45.00;;;;;;5038750;28;19940;-84
2022/06/10 07:43:13;;;;;;;0.00;0.00;;;28.30;46.60;;;;;;4970955;28;19910;-84
2022/06/10 07:45:39;;;;;;;;;;;29.20;46.60;;;;;;4967133;28;20034;-84
2022/06/10 07:48:06;;;;;;;0.00;0.00;;;28.80;45.90;;;;;;4994655;28;19921;-84
2022/06/10 07:50:32;;;;;;;0.00;0.00;;;29.40;46.30;;;;;;4992050;28;20026;-84
2022/06/10 07:52:58;;;;;;;0.40;0.40;;;29.00;46.00;;;;;;4989462;28;20841;-84
2022/06/10 07:55:24;;;;;;;0.00;0.00;;;29.50;44.80;;;;;;4990904;28;20058;-84
2022/06/10 07:57:51;;;;;;;;;;;30.20;43.40;;;;;;4984456;28;20034;-84
2022/06/10 08:00:17;;;;;;;0.00;0.00;;;31.30;43.10;;;;;;4993770;28;20000;-84
2022/06/10 08:02:43;;;;;;;0.00;0.00;;;30.10;43.20;;;;;;4977025;28;20032;-84
2022/06/10 08:05:13;;;;;;;0.00;0.00;;;29.90;43.70;;;;;;4989392;28;20026;-84
2022/06/10 08:07:39;;;;;;;0.00;0.00;;;29.40;44.70;;;;;;4989372;28;20561;-84
2022/06/10 08:10:08;;;;;;;0.10;0.10;;;30.80;44.00;;;;;;4993112;28;20034;-84
2022/06/10 08:12:34;;;;;;;0.00;0.00;;;30.60;44.10;;;;;;4993799;28;20046;-84
2022/06/10 08:14:59;;;;;;;0.10;0.10;;;31.50;42.90;;;;;;4993271;28;20072;-84
2022/06/10 08:17:25;;;;;;;0.10;0.10;;;31.00;44.00;;;;;;4990305;28;20985;-84
2022/06/10 08:19:51;;;;;;;0.00;0.00;;;31.50;41.80;;;;;;5002899;28;20112;-84
2022/06/10 08:22:32;;;;;;;0.00;0.00;;;30.40;44.00;;;;;;5045239;28;20040;-84
2022/06/10 08:24:58;;;;;;;0.17;0.17;;;30.20;44.70;;;;;;5042177;28;20064;-84
2022/06/10 08:27:23;;;;;;;0.00;0.00;;;31.00;43.20;;;;;;5041883;28;20024;-84
2022/06/10 08:29:49;;;;;;;0.00;0.00;;;30.30;44.20;;;;;;5045235;28;20036;-84
2022/06/10 08:32:15;;;;;;;0.00;0.00;;;30.90;44.00;;;;;;5023852;28;20036;-84
2022/06/10 08:34:44;;;;;;;0.00;0.00;;;32.20;43.30;;;;;;5041720;28;20036;-84
2022/06/10 08:37:10;;;;;;;0.00;0.00;;;31.80;41.30;;;;;;5042225;28;20051;-84
2022/06/10 08:39:36;;;;;;;0.43;0.20;;;31.00;42.80;;;;;;5041543;28;20710;-84
2022/06/10 08:42:17;;;;;;;0.00;0.00;;;31.30;40.90;;;;;;5043298;28;20033;-84
2022/06/10 08:44:51;;;;;;;0.00;0.00;;;31.60;41.50;;;;;;5044124;28;20029;-84
2022/06/10 08:47:17;;;;;;;0.05;0.05;;;33.10;42.30;;;;;;5041537;28;20103;-88
2022/06/10 08:49:50;;;;;;;0.20;0.20;;;32.80;39.70;;;;;;5027274;28;20029;-88
2022/06/10 08:52:18;;;;;;;0.20;0.20;;;32.20;40.80;;;;;;5042071;28;20032;-88
2022/06/10 08:54:59;;;;;;;0.20;0.20;;;32.40;40.80;;;;;;5041574;28;20048;-87
2022/06/10 08:57:35;;;;;;;0.20;0.20;;;31.90;38.50;;;;;;5035846;28;20029;-89
2022/06/10 09:00:04;;;;;;;0.52;0.52;;;32.80;40.40;;;;;;5044372;28;20020;-88
2022/06/10 09:02:41;;;;;;;0.00;0.00;;;32.50;39.30;;;;;;5042783;28;20029;-88
2022/06/10 09:05:19;;;;;;;0.20;0.20;;;32.80;40.20;;;;;;5036966;28;20029;-89
2022/06/10 09:07:52;;;;;;;0.08;0.08;;;31.80;39.90;;;;;;5025178;28;20033;-88
2022/06/10 09:10:42;;;;;;;0.00;0.00;;;32.10;40.20;;;;;;5041284;28;20025;-88
2022/06/10 09:13:25;;;;;;;0.73;0.28;;;32.60;39.50;;;;;;5031850;28;20112;-88
2022/06/10 09:16:07;;;;;;;0.00;0.00;;;32.40;39.30;;;;;;5041303;28;20361;-88
2022/06/10 09:18:50;;;;;;;0.08;0.08;;;32.50;39.10;;;;;;5038037;28;20088;-87
2022/06/10 09:21:40;;;;;;;0.00;0.00;;;32.70;40.10;;;;;;5042293;28;20041;-88
2022/06/10 09:24:29;;;;;;;0.05;0.05;;;32.60;39.30;;;;;;5041687;28;20040;-88
2022/06/10 09:27:03;;;;;;;0.00;0.00;;;33.20;40.50;;;;;;5041314;28;20041;-88
2022/06/10 09:29:29;;;;;;;0.30;0.30;;;31.50;41.70;;;;;;5023976;28;20492;-89
2022/06/10 09:32:10;;;;;;;0.00;0.00;;;32.20;40.70;;;;;;5038515;28;20029;-88
2022/06/10 09:35:03;;;;;;;0.28;0.28;;;32.40;41.00;;;;;;5040966;28;20642;-87
2022/06/10 09:37:31;;;;;;;0.10;0.10;;;32.40;39.20;;;;;;5000536;28;20041;-88
2022/06/10 09:43:14;;;;;;;0.68;0.32;;;33.80;38.50;;;;;;4997814;28;20069;-88
2022/06/10 09:45:55;;;;;;;0.20;0.20;;;32.90;39.70;;;;;;4998113;28;20033;-88
2022/06/10 09:48:49;;;;;;;0.10;0.10;;;32.00;41.00;;;;;;4998348;28;20061;-88
2022/06/10 09:51:17;;;;;;;0.00;0.00;;;32.00;42.70;;;;;;4998660;28;20038;-87
2022/06/10 09:54:39;;;;;;;0.80;0.20;;;32.40;39.90;;;;;;5000536;28;20476;-88
2022/06/10 09:57:22;;;;;;;0.00;0.00;;;32.20;39.80;;;;;;4934861;29;20043;-88
2022/06/10 10:00:02;;;;;;;2.22;0.65;;;33.40;38.20;;;;;;4943513;29;20081;-88
2022/06/10 10:02:49;;;;;;;37.78;2.30;;;33.50;40.30;;;;;;4943291;29;20043;-87
2022/06/10 10:05:20;;;;;;;0.10;0.10;;;32.80;40.90;;;;;;4942180;29;20087;-87
2022/06/10 10:07:57;;;;;;;0.00;0.00;;;32.90;40.00;;;;;;4941391;28;20050;-87
2022/06/10 10:10:49;;;;;;;0.05;0.05;;;33.60;39.20;;;;;;4942670;29;20391;-88
2022/06/10 10:13:35;;;;;;;0.00;0.00;;;32.90;40.30;;;;;;4934080;29;20054;-87
2022/06/10 10:16:33;;;;;;;0.20;0.20;;;34.10;37.50;;;;;;4962074;28;20060;-88
2022/06/10 10:19:17;;;;;;;0.40;0.40;;;35.10;37.00;;;;;;4961452;28;20154;-87
2022/06/10 10:22:04;;;;;;;0.15;0.15;;;35.20;35.50;;;;;;4961736;28;20046;-88
2022/06/10 10:24:38;;;;;;;0.00;0.00;;;36.60;35.80;;;;;;4961065;28;20043;-88
2022/06/10 10:27:10;;;;;;;0.47;0.45;;;37.20;35.90;;;;;;4959309;28;20570;-88
2022/06/10 10:29:40;;;;;;;0.00;0.00;;;36.00;36.40;;;;;;4962617;28;20125;-87
2022/06/10 10:32:26;;;;;;;0.28;0.22;;;34.40;38.50;;;;;;5038420;28;20091;-88
2022/06/10 10:35:14;;;;;;;0.00;0.00;;;35.40;38.20;;;;;;5025069;28;20156;-88
2022/06/10 10:37:49;;;;;;;0.00;0.00;;;36.30;36.80;;;;;;5018622;28;20048;-88
2022/06/10 10:40:18;;;;;;;0.00;0.00;;;33.90;36.50;;;;;;5040048;28;20408;-88
2022/06/10 10:42:47;;;;;;;0.20;0.20;;;32.30;38.60;;;;;;5039430;28;20033;-88
2022/06/10 10:45:34;;;;;;;0.10;0.10;;;30.90;41.20;;;;;;5042217;28;20107;-87
2022/06/10 10:48:26;;;;;;;0.20;0.20;;;30.30;43.00;;;;;;5039472;28;20057;-84
2022/06/10 10:50:55;;;;;;;0.03;0.03;;;29.60;44.60;;;;;;5039777;28;20040;-84
2022/06/10 10:53:28;;;;;;;0.00;0.00;;;28.20;44.70;;;;;;5040396;28;20063;-83
2022/06/10 10:55:57;;;;;;;0.10;0.10;;;28.20;46.60;;;;;;5039648;28;20045;-83
2022/06/10 10:58:31;;;;;;;0.10;0.05;;;28.30;47.30;;;;;;5040225;28;20032;-84
2022/06/10 11:01:04;;;;;;;0.00;0.00;;;27.50;46.60;;;;;;5039867;28;20419;-84
2022/06/10 11:03:33;;;;;;;0.10;0.10;;;26.90;47.90;;;;;;5039460;28;20029;-84
2022/06/10 11:06:04;;;;;;;0.15;0.15;;;27.60;50.10;;;;;;5041897;28;20108;-84
2022/06/10 11:08:39;;;;;;;0.55;0.25;;;27.60;50.30;;;;;;5042490;28;20017;-83
2022/06/10 11:11:24;;;;;;;0.00;0.00;;;27.50;51.00;;;;;;5039451;28;20102;-84
2022/06/10 11:14:04;;;;;;;0.25;0.17;;;27.00;53.70;;;;;;5039499;28;20163;-84
2022/06/10 11:16:44;;;;;;;0.05;0.05;;;27.00;54.60;;;;;;5042033;28;20852;-84
2022/06/10 11:19:28;;;;;;;0.00;0.00;;;27.00;53.90;;;;;;5029624;28;20032;-83
2022/06/10 11:22:07;;;;;;;0.10;0.10;;;26.60;50.80;;;;;;5039543;28;20036;-84
2022/06/10 11:24:37;;;;;;;0.20;0.15;;;26.70;57.70;;;;;;5018117;28;20509;-84
2022/06/10 11:27:21;;;;;;;0.03;0.03;;;26.10;51.60;;;;;;5024392;28;20072;-84
2022/06/10 11:30:06;;;;;;;0.08;0.08;;;26.20;56.70;;;;;;5043369;28;20025;-84
2022/06/10 11:32:49;;;;;;;0.50;0.30;;;25.90;52.40;;;;;;5038455;28;20029;-83
2022/06/10 11:35:18;;;;;;;0.00;0.00;;;26.10;54.00;;;;;;5023774;28;20076;-84
2022/06/10 11:37:48;;;;;;;0.10;0.10;;;25.90;54.30;;;;;;5039460;28;20108;-84
2022/06/10 11:40:16;;;;;;;0.10;0.10;;;26.00;55.40;;;;;;5042085;28;20110;-83
2022/06/10 11:43:36;;;;;;;0.00;0.00;;;26.30;58.10;;;;;;5038972;28;20948;-83
2022/06/10 11:46:21;;;;;;;0.00;0.00;;;26.10;57.10;;;;;;4942043;29;20054;-83
2022/06/10 11:49:11;;;;;;;0.20;0.17;;;25.80;55.00;;;;;;4941630;28;20051;-84
2022/06/10 11:51:50;;;;;;;0.00;0.00;;;26.00;55.30;;;;;;4942456;29;20283;-84
2022/06/10 11:54:26;;;;;;;0.00;0.00;;;25.90;54.60;;;;;;4926333;29;20027;-83
2022/06/10 11:59:49;;;;;;;0.10;0.10;;;25.30;52.10;;;;;;4940478;29;20734;-83
2022/06/10 12:02:30;;;;;;;0.00;0.00;;;25.60;57.40;;;;;;4941035;29;20138;-83
2022/06/10 12:05:09;;;;;;;0.38;0.30;;;25.80;57.00;;;;;;4936123;29;20042;-83
2022/06/10 12:07:43;;;;;;;0.00;0.00;;;25.70;59.60;;;;;;4921112;29;20039;-83
2022/06/10 12:10:16;;;;;;;0.10;0.10;;;25.90;58.80;;;;;;4939987;29;20039;-83
2022/06/10 12:12:44;;;;;;;0.20;0.20;;;26.00;59.00;;;;;;4938566;29;20078;-83
2022/06/10 12:15:26;;;;;;;0.00;0.00;;;25.70;53.60;;;;;;4940914;29;20091;-83
2022/06/10 12:17:56;;;;;;;0.05;0.05;;;25.70;56.90;;;;;;4937909;29;21036;-83
2022/06/10 12:20:41;;;;;;;0.20;0.20;;;25.50;56.90;;;;;;4940819;29;20683;-83
2022/06/10 12:23:37;;;;;;;0.30;0.30;;;25.70;55.90;;;;;;5013328;28;20021;-83
2022/06/10 12:26:30;;;;;;;0.63;0.30;;;25.50;59.10;;;;;;5019586;28;20124;-83
2022/06/10 12:28:58;;;;;;;0.00;0.00;;;25.70;58.40;;;;;;5021134;28;20367;-83
2022/06/10 12:31:47;;;;;;;0.00;0.00;;;25.50;56.90;;;;;;5022449;28;20025;-83
2022/06/10 12:34:31;;;;;;;0.10;0.10;;;25.40;58.00;;;;;;5013644;28;20033;-83
2022/06/10 12:37:01;;;;;;;0.40;0.22;;;25.40;58.30;;;;;;5022160;28;20037;-83
2022/06/10 12:39:29;;;;;;;0.38;0.17;;;25.40;58.10;;;;;;5017835;28;20096;-83
2022/06/10 12:42:36;;;;;;;0.10;0.10;;;25.40;60.60;;;;;;5024273;28;20770;-83
2022/06/10 12:45:05;;;;;;;0.15;0.00;;;25.30;59.70;;;;;;5013728;28;20037;-83
2022/06/10 12:47:38;;;;;;;0.10;0.10;;;25.30;60.20;;;;;;5010539;28;20106;-83
2022/06/10 12:50:27;;;;;;;0.08;0.08;;;25.30;57.00;;;;;;5010899;28;20014;-83
2022/06/10 12:53:24;;;;;;;0.00;0.00;;;25.20;61.60;;;;;;5017587;28;20116;-83
2022/06/10 12:55:53;;;;;;;0.13;0.13;;;25.10;57.40;;;;;;5021887;28;20029;-82
2022/06/10 12:58:39;;;;;;;0.10;0.10;;;25.10;60.80;;;;;;5020469;28;20060;-83
2022/06/10 13:01:16;;;;;;;0.15;0.15;;;25.30;61.00;;;;;;5017269;28;20040;-83
2022/06/10 13:03:42;;;;;;;0.00;0.00;;;25.10;58.60;;;;;;5021645;28;20040;-82
2022/06/10 13:06:37;;;;;;;;;;;25.30;61.10;;;;;;5008910;28;20029;-82
2022/06/10 13:09:12;;;;;;;0.20;0.20;;;25.30;60.00;;;;;;4997849;28;20380;-82
2022/06/10 13:11:58;;;;;;;1.00;0.47;;;25.30;60.60;;;;;;5020279;28;20515;-83
2022/06/10 13:14:30;;;;;;;0.10;0.10;;;25.30;60.00;;;;;;5018480;28;20614;-83
2022/06/10 13:16:58;;;;;;;0.03;0.03;;;25.30;61.50;;;;;;5015431;28;20026;-82
2022/06/10 13:19:49;;;;;;;0.47;0.47;;;25.30;59.60;;;;;;5007934;28;20026;-82
2022/06/10 13:22:17;;;;;;;0.03;0.00;;;25.10;60.50;;;;;;5007095;28;20120;-83
2022/06/10 13:24:52;;;;;;;1.15;0.63;;;25.00;58.50;;;;;;5006971;28;20164;-82
2022/06/10 13:27:25;;;;;;;0.38;0.38;;;25.10;58.50;;;;;;5007994;28;20037;-82
2022/06/10 13:30:14;;;;;;;0.68;0.63;;;25.20;61.10;;;;;;5007510;28;20030;-82
2022/06/10 13:32:49;;;;;;;0.55;0.55;;;25.30;62.10;;;;;;5007637;28;20134;-82
2022/06/10 13:35:25;;;;;;;0.00;0.00;;;25.10;57.10;;;;;;5007490;28;20073;-82